createdAt,value
2018-12-27T00:00:54.764Z,20.13
2018-12-27T00:03:26.834Z,21.40
2018-12-27T00:05:58.869Z,19.37
2018-12-27T00:08:31.288Z,20.13
2018-12-27T00:11:03.823Z,18.97
2018-12-27T00:13:36.085Z,20.03
2018-12-27T00:16:08.073Z,19.63
2018-12-27T00:18:40.297Z,20.30
2018-12-27T00:21:12.398Z,18.20
2018-12-27T00:23:44.648Z,18.03
2018-12-27T00:26:16.631Z,15.57
2018-12-27T00:28:48.600Z,20.43
2018-12-27T00:31:20.594Z,19.90
2018-12-27T00:33:52.562Z,15.43
2018-12-27T00:36:24.602Z,19.80
2018-12-27T00:38:56.574Z,19.00
2018-12-27T00:41:28.573Z,19.87
2018-12-27T00:44:00.833Z,18.93
2018-12-27T00:46:33.141Z,19.17
2018-12-27T00:49:05.089Z,23.10
2018-12-27T00:51:37.077Z,18.03
2018-12-27T00:54:09.063Z,21.17
2018-12-27T00:56:41.049Z,20.07
2018-12-27T00:59:13.044Z,19.27
2018-12-27T01:01:45.127Z,16.90
2018-12-27T01:04:17.130Z,18.80
2018-12-27T01:06:49.385Z,15.67
2018-12-27T01:09:21.408Z,19.27
2018-12-27T01:11:54.158Z,18.33
2018-12-27T01:14:26.173Z,16.67
2018-12-27T01:16:58.156Z,20.03
2018-12-27T01:19:30.841Z,19.20
2018-12-27T01:22:02.876Z,18.63
2018-12-27T01:24:34.888Z,20.27
2018-12-27T01:27:06.891Z,19.27
2018-12-27T01:29:39.207Z,18.77
2018-12-27T01:32:11.170Z,17.07
2018-12-27T01:34:43.225Z,18.40
2018-12-27T01:37:15.194Z,20.40
2018-12-27T01:39:47.199Z,19.27
2018-12-27T01:42:19.162Z,16.90
2018-12-27T01:44:51.517Z,18.53
2018-12-27T01:47:23.600Z,18.43
2018-12-27T01:49:55.600Z,15.53
2018-12-27T01:52:27.576Z,14.97
2018-12-27T01:54:59.622Z,16.43
2018-12-27T01:57:31.588Z,17.80
2018-12-27T02:00:03.618Z,18.10
2018-12-27T02:02:35.580Z,18.17
2018-12-27T02:05:07.583Z,18.03
2018-12-27T02:07:39.549Z,17.27
2018-12-27T02:10:11.557Z,16.60
2018-12-27T02:12:43.525Z,15.83
2018-12-27T02:15:15.573Z,15.37
2018-12-27T02:17:47.798Z,16.03
2018-12-27T02:20:21.491Z,14.87
2018-12-27T02:22:53.583Z,15.83
2018-12-27T02:25:26.030Z,15.00
2018-12-27T02:27:58.266Z,14.90
2018-12-27T02:30:30.399Z,15.03
2018-12-27T02:33:02.467Z,15.20
2018-12-27T02:35:34.479Z,11.47
2018-12-27T02:38:06.462Z,14.93
2018-12-27T02:40:38.444Z,13.53
2018-12-27T02:43:10.970Z,12.90
2018-12-27T02:45:43.204Z,9.13
2018-12-27T02:48:15.476Z,10.70
2018-12-27T02:50:47.452Z,12.50
2018-12-27T02:53:19.461Z,13.40
2018-12-27T02:55:51.451Z,12.60
2018-12-27T02:58:23.420Z,10.27
2018-12-27T03:00:55.410Z,12.20
2018-12-27T03:03:27.382Z,9.30
2018-12-27T03:05:59.377Z,10.83
2018-12-27T03:08:31.681Z,11.80
2018-12-27T03:11:03.687Z,9.90
2018-12-27T03:13:35.680Z,12.00
2018-12-27T03:16:07.781Z,11.67
2018-12-27T03:18:39.747Z,12.00
2018-12-27T03:21:11.742Z,11.50
2018-12-27T03:23:43.707Z,10.00
2018-12-27T03:26:15.725Z,10.63
2018-12-27T03:28:47.822Z,11.57
2018-12-27T03:31:19.926Z,13.43
2018-12-27T03:33:52.809Z,12.27
2018-12-27T03:36:25.059Z,10.87
2018-12-27T03:38:57.338Z,11.67
2018-12-27T03:41:29.344Z,12.63
2018-12-27T03:44:01.325Z,12.20
2018-12-27T03:46:33.350Z,10.50
2018-12-27T03:49:05.586Z,8.80
2018-12-27T03:51:37.591Z,10.83
2018-12-27T03:54:09.549Z,8.90
2018-12-27T03:56:41.564Z,10.90
2018-12-27T03:59:13.522Z,10.33
2018-12-27T04:01:45.544Z,11.03
2018-12-27T04:04:17.533Z,11.20
2018-12-27T04:06:49.959Z,10.93
2018-12-27T04:09:21.916Z,9.93
2018-12-27T04:11:53.920Z,11.27
2018-12-27T04:14:25.892Z,10.33
2018-12-27T04:16:57.929Z,11.77
2018-12-27T04:19:30.136Z,10.50
2018-12-27T04:22:02.653Z,10.60
2018-12-27T04:24:34.809Z,9.90
2018-12-27T04:27:06.823Z,10.47
2018-12-27T04:29:39.066Z,10.07
2018-12-27T04:32:11.429Z,7.13
2018-12-27T04:34:43.685Z,11.20
2018-12-27T04:37:15.694Z,11.00
2018-12-27T04:39:47.781Z,10.47
2018-12-27T04:42:20.199Z,11.87
2018-12-27T04:44:52.210Z,11.60
2018-12-27T04:47:24.798Z,12.17
2018-12-27T04:49:57.081Z,12.10
2018-12-27T04:52:29.085Z,14.60
2018-12-27T04:55:01.065Z,14.83
2018-12-27T04:57:33.199Z,14.40
2018-12-27T05:00:05.851Z,14.73
2018-12-27T05:02:37.917Z,15.93
2018-12-27T05:05:09.881Z,13.17
2018-12-27T05:07:42.181Z,13.47
2018-12-27T05:10:14.336Z,14.20
2018-12-27T05:12:46.713Z,12.67
2018-12-27T05:15:18.787Z,11.23
2018-12-27T05:17:51.139Z,12.40
2018-12-27T05:20:23.570Z,12.63
2018-12-27T05:22:55.544Z,13.00
2018-12-27T05:25:27.544Z,12.60
2018-12-27T05:27:59.525Z,11.33
2018-12-27T05:30:31.626Z,13.93
2018-12-27T05:33:04.031Z,13.67
2018-12-27T05:35:36.320Z,12.00
2018-12-27T05:38:08.307Z,12.60
2018-12-27T05:40:40.379Z,13.87
2018-12-27T05:43:12.349Z,13.90
2018-12-27T05:45:44.349Z,13.80
2018-12-27T05:48:16.684Z,13.77
2018-12-27T05:50:48.741Z,13.03
2018-12-27T05:53:20.973Z,12.43
2018-12-27T05:55:53.089Z,12.83
2018-12-27T05:58:25.059Z,13.20
2018-12-27T06:00:57.045Z,13.17
2018-12-27T06:03:29.010Z,13.10
2018-12-27T06:06:01.293Z,12.73
2018-12-27T06:08:33.384Z,13.37
2018-12-27T06:11:05.474Z,14.03
2018-12-27T06:13:37.440Z,12.83
2018-12-27T06:16:09.440Z,11.67
2018-12-27T06:18:41.502Z,12.93
2018-12-27T06:21:13.911Z,14.23
2018-12-27T06:23:46.134Z,13.10
2018-12-27T06:26:18.209Z,12.47
2018-12-27T06:28:50.187Z,12.93
2018-12-27T06:31:22.294Z,12.57
2018-12-27T06:33:54.357Z,12.70
2018-12-27T06:36:26.535Z,12.87
2018-12-27T06:38:58.606Z,13.37
2018-12-27T06:41:30.598Z,12.87
2018-12-27T06:44:02.671Z,13.53
2018-12-27T06:46:34.709Z,13.43
2018-12-27T06:49:06.692Z,12.60
2018-12-27T06:51:39.061Z,13.50
2018-12-27T06:54:11.302Z,13.40
2018-12-27T06:56:43.484Z,13.23
2018-12-27T06:59:15.733Z,12.83
2018-12-27T07:01:48.017Z,13.80
2018-12-27T07:04:19.996Z,12.43
2018-12-27T07:06:52.120Z,13.10
2018-12-27T07:09:24.336Z,13.87
2018-12-27T07:11:56.516Z,13.50
2018-12-27T07:14:28.448Z,12.87
2018-12-27T07:17:00.487Z,14.27
2018-12-27T07:19:32.541Z,13.57
2018-12-27T07:22:04.826Z,13.17
2018-12-27T07:24:37.300Z,13.13
2018-12-27T07:27:09.599Z,13.30
2018-12-27T07:29:41.991Z,12.93
2018-12-27T07:32:14.099Z,14.07
2018-12-27T07:34:46.557Z,12.63
2018-12-27T07:37:18.557Z,14.83
2018-12-27T07:39:50.523Z,13.03
2018-12-27T07:42:22.933Z,14.97
2018-12-27T07:44:55.006Z,13.60
2018-12-27T07:47:27.004Z,13.93
2018-12-27T07:49:59.071Z,14.83
2018-12-27T07:52:31.464Z,13.80
2018-12-27T07:55:03.663Z,13.47
2018-12-27T07:57:35.952Z,15.57
2018-12-27T08:00:08.258Z,13.77
2018-12-27T08:02:40.258Z,13.57
2018-12-27T08:05:12.237Z,14.80
2018-12-27T08:07:44.357Z,13.93
2018-12-27T08:10:16.339Z,11.63
2018-12-27T08:12:49.636Z,13.40
2018-12-27T08:15:21.648Z,14.43
2018-12-27T08:17:53.662Z,13.70
2018-12-27T08:20:25.715Z,13.87
2018-12-27T08:22:57.730Z,15.17
2018-12-27T08:25:29.940Z,14.27
2018-12-27T08:28:02.085Z,13.90
2018-12-27T08:30:34.466Z,14.97
2018-12-27T08:33:06.487Z,13.77
2018-12-27T08:35:38.754Z,16.40
2018-12-27T08:38:10.888Z,14.23
2018-12-27T08:40:43.112Z,15.00
2018-12-27T08:43:15.517Z,14.70
2018-12-27T08:45:47.514Z,14.93
2018-12-27T08:48:19.881Z,14.73
2018-12-27T08:50:51.948Z,15.47
2018-12-27T08:53:24.204Z,15.33
2018-12-27T08:55:56.201Z,14.03
2018-12-27T08:58:28.221Z,14.20
2018-12-27T09:01:00.195Z,16.07
2018-12-27T09:03:32.383Z,15.40
2018-12-27T09:06:04.457Z,15.57
2018-12-27T09:08:36.584Z,14.73
2018-12-27T09:11:09.372Z,14.63
2018-12-27T09:13:41.649Z,15.50
2018-12-27T09:16:13.619Z,15.30
2018-12-27T09:18:45.789Z,15.47
2018-12-27T09:21:18.206Z,14.23
2018-12-27T09:23:50.326Z,15.57
2018-12-27T09:26:22.574Z,16.60
2018-12-27T09:28:54.697Z,15.53
2018-12-27T09:31:26.982Z,16.73
2018-12-27T09:33:59.081Z,17.03
2018-12-27T09:36:31.149Z,16.33
2018-12-27T09:39:05.500Z,15.60
2018-12-27T09:41:37.620Z,15.10
2018-12-27T09:44:15.698Z,15.80
2018-12-27T09:46:47.946Z,15.13
2018-12-27T09:49:20.071Z,16.10
2018-12-27T09:51:52.097Z,17.33
2018-12-27T09:54:24.378Z,17.03
2018-12-27T09:56:56.810Z,14.77
2018-12-27T09:59:28.817Z,16.00
2018-12-27T10:02:00.845Z,16.10
2018-12-27T10:04:33.054Z,16.47
2018-12-27T10:07:05.233Z,16.63
2018-12-27T10:09:37.453Z,16.27
2018-12-27T10:12:09.720Z,15.57
2018-12-27T10:14:42.113Z,16.03
2018-12-27T10:17:14.171Z,16.23
2018-12-27T10:19:46.481Z,15.73
2018-12-27T10:22:18.555Z,15.57
2018-12-27T10:24:50.919Z,13.33
2018-12-27T10:27:23.185Z,16.30
2018-12-27T10:29:55.166Z,15.57
2018-12-27T10:32:27.215Z,15.67
2018-12-27T10:34:59.195Z,15.53
2018-12-27T10:37:31.221Z,14.60
2018-12-27T10:40:06.161Z,14.17
2018-12-27T10:42:38.490Z,15.30
2018-12-27T10:45:10.553Z,11.30
2018-12-27T10:47:43.010Z,16.27
2018-12-27T10:50:15.228Z,14.97
2018-12-27T10:52:47.467Z,14.57
2018-12-27T10:55:19.672Z,14.70
2018-12-27T10:57:51.711Z,14.40
2018-12-27T11:00:24.193Z,15.47
2018-12-27T11:02:56.229Z,16.03
2018-12-27T11:05:28.618Z,13.93
2018-12-27T11:08:00.649Z,15.17
2018-12-27T11:10:32.919Z,14.07
2018-12-27T11:13:05.044Z,13.43
2018-12-27T11:15:37.416Z,15.37
2018-12-27T11:18:09.433Z,15.40
2018-12-27T11:20:41.416Z,14.47
2018-12-27T11:23:13.682Z,14.77
2018-12-27T11:25:46.136Z,15.07
2018-12-27T11:28:18.303Z,14.17
2018-12-27T11:30:50.580Z,13.30
2018-12-27T11:33:22.693Z,14.43
2018-12-27T11:35:55.912Z,14.53
2018-12-27T11:38:28.155Z,11.60
2018-12-27T11:41:03.274Z,13.77
2018-12-27T11:43:35.822Z,13.07
2018-12-27T11:46:07.882Z,13.57
2018-12-27T11:48:39.900Z,15.30
2018-12-27T11:51:12.010Z,13.73
2018-12-27T11:53:44.155Z,13.53
2018-12-27T11:56:16.236Z,14.37
2018-12-27T11:58:48.413Z,14.03
2018-12-27T12:01:20.513Z,13.57
2018-12-27T12:03:52.633Z,14.20
2018-12-27T12:06:24.575Z,13.43
2018-12-27T12:08:56.578Z,14.57
2018-12-27T12:11:28.659Z,13.90
2018-12-27T12:14:00.640Z,13.57
2018-12-27T12:16:32.628Z,14.23
2018-12-27T12:19:04.938Z,13.47
2018-12-27T12:24:28.690Z,14.60
2018-12-27T12:27:13.787Z,14.10
2018-12-27T12:29:59.071Z,12.17
2018-12-27T12:32:43.940Z,13.27
2018-12-27T12:35:28.780Z,13.73
2018-12-27T12:38:13.409Z,13.33
2018-12-27T12:40:45.417Z,13.50
2018-12-27T12:43:29.887Z,11.83
2018-12-27T12:46:14.981Z,13.37
2018-12-27T12:49:00.353Z,13.67
2018-12-27T12:51:45.272Z,14.03
2018-12-27T12:54:30.773Z,12.77
2018-12-27T12:57:15.245Z,12.23
2018-12-27T13:00:00.587Z,12.30
2018-12-27T13:02:45.322Z,9.97
2018-12-27T13:05:30.856Z,11.70
2018-12-27T13:08:15.705Z,11.90
2018-12-27T13:11:01.381Z,11.97
2018-12-27T13:13:46.560Z,11.23
2018-12-27T13:16:19.061Z,12.63
2018-12-27T13:19:10.761Z,11.83
2018-12-27T13:21:55.472Z,12.77
2018-12-27T13:24:40.525Z,11.40
2018-12-27T13:27:25.845Z,11.63
2018-12-27T13:29:57.940Z,11.97
2018-12-27T13:32:42.829Z,11.60
2018-12-27T13:35:27.893Z,13.47
2018-12-27T13:37:59.873Z,12.73
2018-12-27T13:40:42.934Z,11.83
2018-12-27T13:43:28.373Z,12.40
2018-12-27T13:46:00.514Z,11.00
2018-12-27T13:48:52.218Z,11.93
2018-12-27T13:51:31.421Z,10.70
2018-12-27T13:54:23.425Z,11.70
2018-12-27T13:57:08.209Z,11.77
2018-12-27T13:59:53.346Z,9.23
2018-12-27T14:02:38.397Z,11.33
2018-12-27T14:05:10.634Z,10.57
2018-12-27T14:08:02.549Z,11.40
2018-12-27T14:10:47.850Z,12.13
2018-12-27T14:13:32.898Z,11.10
2018-12-27T14:16:18.230Z,10.60
2018-12-27T14:19:02.941Z,11.00
2018-12-27T14:21:47.898Z,10.93
2018-12-27T14:24:32.573Z,11.57
2018-12-27T14:27:18.154Z,11.97
2018-12-27T14:30:02.866Z,9.37
2018-12-27T14:32:47.886Z,12.33
2018-12-27T14:35:20.422Z,10.70
2018-12-27T14:38:12.280Z,9.87
2018-12-27T14:40:57.419Z,12.17
2018-12-27T14:43:42.346Z,9.63
2018-12-27T14:46:27.494Z,10.60
2018-12-27T14:48:59.493Z,10.43
2018-12-27T14:51:51.232Z,11.03
2018-12-27T14:54:33.954Z,11.53
2018-12-27T14:57:18.802Z,12.20
2018-12-27T15:00:03.778Z,12.30
2018-12-27T15:02:49.135Z,12.80
2018-12-27T15:05:33.808Z,12.03
2018-12-27T15:08:18.824Z,12.20
2018-12-27T15:11:03.956Z,13.00
2018-12-27T15:13:48.934Z,12.47
2018-12-27T15:16:33.961Z,12.93
2018-12-27T15:19:18.865Z,11.67
2018-12-27T15:22:04.466Z,11.50
2018-12-27T15:24:49.297Z,11.77
2018-12-27T15:27:34.226Z,11.83
2018-12-27T15:30:19.172Z,13.40
2018-12-27T15:33:04.364Z,12.53
2018-12-27T15:35:49.178Z,12.87
2018-12-27T15:38:34.602Z,13.17
2018-12-27T15:41:19.285Z,13.03
2018-12-27T15:44:04.338Z,11.60
2018-12-27T15:46:49.431Z,11.87
2018-12-27T15:49:34.811Z,13.17
2018-12-27T15:52:19.538Z,13.00
2018-12-27T15:55:04.678Z,12.57
2018-12-27T15:57:49.463Z,10.30
2018-12-27T16:00:34.109Z,10.40
2018-12-27T16:03:18.746Z,13.53
2018-12-27T16:06:03.589Z,10.90
2018-12-27T16:08:48.946Z,15.13
2018-12-27T16:11:33.923Z,14.40
2018-12-27T16:14:19.150Z,11.73
2018-12-27T16:17:03.948Z,15.03
2018-12-27T16:19:49.038Z,14.70
2018-12-27T16:22:33.949Z,14.60
2018-12-27T16:25:18.758Z,15.57
2018-12-27T16:28:04.211Z,16.37
2018-12-27T16:30:48.874Z,16.00
2018-12-27T16:33:34.012Z,14.10
2018-12-27T16:36:18.923Z,14.40
2018-12-27T16:39:04.191Z,14.83
2018-12-27T16:41:49.045Z,15.20
2018-12-27T16:44:34.367Z,15.50
2018-12-27T16:47:06.573Z,17.60
2018-12-27T16:49:58.193Z,15.57
2018-12-27T16:52:43.506Z,15.60
2018-12-27T16:55:28.875Z,15.80
2018-12-27T16:58:13.852Z,15.83
2018-12-27T17:00:59.079Z,15.80
2018-12-27T17:03:44.493Z,17.20
2018-12-27T17:06:30.263Z,15.93
2018-12-27T17:09:15.085Z,14.90
2018-12-27T17:12:00.366Z,13.93
2018-12-27T17:14:45.190Z,14.80
2018-12-27T17:17:17.279Z,15.00
2018-12-27T17:20:02.029Z,14.60
2018-12-27T17:22:46.934Z,15.20
2018-12-27T17:25:31.748Z,14.50
2018-12-27T17:28:16.881Z,15.73
2018-12-27T17:31:01.820Z,11.80
2018-12-27T17:33:46.882Z,14.80
2018-12-27T17:36:32.047Z,14.90
2018-12-27T17:39:17.038Z,15.07
2018-12-27T17:42:02.154Z,14.07
2018-12-27T17:44:34.327Z,14.73
2018-12-27T17:47:19.179Z,14.83
2018-12-27T17:50:04.480Z,14.20
2018-12-27T17:52:49.350Z,14.73
2018-12-27T17:55:21.469Z,15.20
2018-12-27T17:58:13.393Z,14.43
2018-12-27T18:00:58.599Z,14.60
2018-12-27T18:03:30.632Z,13.47
2018-12-27T18:06:22.354Z,12.50
2018-12-27T18:09:07.793Z,14.00
2018-12-27T18:11:52.942Z,14.10
2018-12-27T18:14:37.601Z,15.20
2018-12-27T18:17:22.397Z,13.77
2018-12-27T18:20:07.513Z,13.93
2018-12-27T18:22:52.437Z,14.13
2018-12-27T18:25:37.570Z,14.07
2018-12-27T18:28:22.558Z,14.30
2018-12-27T18:31:07.452Z,14.67
2018-12-27T18:33:52.709Z,15.40
2018-12-27T18:36:37.597Z,15.37
2018-12-27T18:39:22.678Z,15.87
2018-12-27T18:42:07.727Z,15.53
2018-12-27T18:44:53.130Z,15.27
2018-12-27T18:47:37.947Z,16.07
2018-12-27T18:50:23.009Z,15.77
2018-12-27T18:53:07.910Z,15.20
2018-12-27T18:55:52.856Z,15.33
2018-12-27T18:58:38.131Z,15.70
2018-12-27T19:01:10.287Z,16.20
2018-12-27T19:04:02.058Z,15.43
2018-12-27T19:06:46.820Z,15.17
2018-12-27T19:09:31.927Z,16.03
2018-12-27T19:12:17.489Z,17.47
2018-12-27T19:15:02.470Z,14.80
2018-12-27T19:17:47.683Z,15.50
2018-12-27T19:20:32.652Z,16.33
2018-12-27T19:23:17.897Z,15.93
2018-12-27T19:26:02.627Z,16.90
2018-12-27T19:28:47.727Z,16.60
2018-12-27T19:31:32.575Z,16.07
2018-12-27T19:34:17.649Z,16.63
2018-12-27T19:37:02.830Z,16.20
2018-12-27T19:39:47.482Z,16.83
2018-12-27T19:42:19.987Z,15.30
2018-12-27T19:45:11.718Z,16.50
2018-12-27T19:47:50.184Z,17.77
2018-12-27T19:50:41.893Z,14.33
2018-12-27T19:53:34.273Z,13.90
2018-12-27T19:56:19.022Z,15.90
2018-12-27T19:59:04.232Z,16.60
2018-12-27T20:01:49.380Z,16.03
2018-12-27T20:04:34.440Z,15.33
2018-12-27T20:07:19.526Z,15.63
2018-12-27T20:10:04.904Z,15.77
2018-12-27T20:12:49.592Z,15.27
2018-12-27T20:15:34.788Z,16.70
2018-12-27T20:18:19.554Z,16.07
2018-12-27T20:21:04.626Z,15.80
2018-12-27T20:23:49.630Z,14.80
2018-12-27T20:26:34.630Z,16.10
2018-12-27T20:29:06.960Z,15.53
2018-12-27T20:31:58.660Z,16.00
2018-12-27T20:34:43.781Z,16.97
2018-12-27T20:37:28.725Z,13.07
2018-12-27T20:40:14.110Z,16.03
2018-12-27T20:42:59.389Z,15.73
2018-12-27T20:45:44.319Z,15.73
2018-12-27T20:48:29.235Z,14.33
2018-12-27T20:51:14.586Z,15.67
2018-12-27T20:53:59.457Z,15.40
2018-12-27T20:56:44.797Z,17.03
2018-12-27T20:59:29.630Z,15.13
2018-12-27T21:02:14.735Z,15.83
2018-12-27T21:04:46.795Z,16.03
2018-12-27T21:07:38.397Z,15.60
2018-12-27T21:10:29.378Z,17.70
2018-12-27T21:13:14.680Z,16.17
2018-12-27T21:15:59.303Z,17.20
2018-12-27T21:18:44.641Z,15.33
2018-12-27T21:21:29.415Z,16.47
2018-12-27T21:24:14.435Z,16.67
2018-12-27T21:26:59.673Z,16.73
2018-12-27T21:29:44.565Z,16.87
2018-12-27T21:32:30.077Z,15.83
2018-12-27T21:35:15.065Z,16.87
2018-12-27T21:38:00.346Z,16.70
2018-12-27T21:40:45.595Z,17.00
2018-12-27T21:43:30.317Z,15.87
2018-12-27T21:46:15.421Z,16.77
2018-12-27T21:49:00.337Z,16.70
2018-12-27T21:51:45.418Z,15.73
2018-12-27T21:57:33.297Z,16.27
2018-12-27T22:00:18.286Z,17.90
2018-12-27T22:03:03.504Z,17.57
2018-12-27T22:08:40.307Z,14.43
2018-12-27T22:11:25.965Z,16.97
2018-12-27T22:14:11.040Z,17.47
2018-12-27T22:16:55.725Z,16.00
2018-12-27T22:19:40.872Z,17.67
2018-12-27T22:22:26.288Z,16.83
2018-12-27T22:25:10.968Z,16.20
2018-12-27T22:27:56.056Z,15.43
2018-12-27T22:30:41.327Z,15.87
2018-12-27T22:33:26.257Z,17.60
2018-12-27T22:36:11.357Z,14.00
2018-12-27T22:38:56.247Z,18.03
2018-12-27T22:41:41.508Z,17.73
2018-12-27T22:44:26.719Z,17.00
2018-12-27T22:47:11.514Z,18.37
2018-12-27T22:49:56.352Z,16.60
2018-12-27T22:52:41.500Z,16.43
2018-12-27T22:55:13.488Z,16.00
2018-12-27T22:57:58.846Z,18.23
2018-12-27T23:00:44.453Z,18.83
2018-12-27T23:03:28.894Z,19.80
2018-12-27T23:06:14.101Z,17.23
2018-12-27T23:08:59.370Z,18.87
2018-12-27T23:11:44.195Z,19.10
2018-12-27T23:14:29.116Z,19.43
2018-12-27T23:17:14.121Z,17.80
2018-12-27T23:19:59.379Z,18.23
2018-12-27T23:22:44.410Z,20.00
2018-12-27T23:25:29.673Z,19.93
2018-12-27T23:28:14.262Z,19.70
2018-12-27T23:30:59.370Z,19.87
2018-12-27T23:33:44.728Z,19.30
2018-12-27T23:36:29.407Z,20.53
2018-12-27T23:39:14.461Z,20.20
2018-12-27T23:41:46.778Z,19.83
2018-12-27T23:44:31.281Z,18.93
2018-12-27T23:47:03.591Z,19.37
2018-12-27T23:49:55.313Z,19.70
2018-12-27T23:52:38.161Z,19.13
2018-12-27T23:55:23.014Z,18.00
2018-12-27T23:58:07.776Z,18.83
